createdAt,value
2019-03-08T00:00:50.354Z,1.10
2019-03-08T00:05:55.535Z,1.30
2019-03-08T00:11:00.766Z,1.10
2019-03-08T00:16:05.952Z,1.10
2019-03-08T00:21:11.131Z,1.10
2019-03-08T00:26:17.088Z,1.10
2019-03-08T00:31:22.600Z,1.20
2019-03-08T00:36:28.382Z,0.90
2019-03-08T00:41:33.619Z,1.17
2019-03-08T00:46:38.799Z,1.10
2019-03-08T00:51:44.363Z,1.20
2019-03-08T00:56:50.512Z,1.20
2019-03-08T01:01:55.788Z,1.20
2019-03-08T01:07:00.974Z,1.10
2019-03-08T01:12:06.175Z,1.20
2019-03-08T01:17:11.745Z,1.10
2019-03-08T01:22:17.302Z,1.20
2019-03-08T01:27:22.624Z,1.20
2019-03-08T01:32:28.182Z,1.10
2019-03-08T01:37:33.353Z,1.10
2019-03-08T01:42:38.553Z,1.30
2019-03-08T01:47:45.154Z,1.30
2019-03-08T01:52:50.641Z,1.67
2019-03-08T01:57:56.096Z,1.60
2019-03-08T02:03:06.648Z,1.50
2019-03-08T02:08:11.923Z,1.60
2019-03-08T02:13:17.486Z,1.60
2019-03-08T02:18:22.800Z,1.50
2019-03-08T02:23:27.976Z,1.53
2019-03-08T02:28:33.266Z,1.50
2019-03-08T02:33:38.915Z,1.57
2019-03-08T02:38:44.369Z,1.30
2019-03-08T02:43:49.605Z,1.60
2019-03-08T02:48:56.183Z,1.70
2019-03-08T02:54:01.701Z,1.53
2019-03-08T02:59:06.912Z,1.47
2019-03-08T03:04:12.190Z,1.70
2019-03-08T03:09:17.371Z,1.70
2019-03-08T03:14:22.713Z,1.50
2019-03-08T03:19:28.455Z,1.30
2019-03-08T03:24:33.946Z,1.50
2019-03-08T03:29:40.190Z,1.50
2019-03-08T03:34:45.366Z,1.40
2019-03-08T03:39:50.577Z,1.30
2019-03-08T03:44:56.068Z,1.47
2019-03-08T03:50:02.412Z,1.43
2019-03-08T03:55:07.923Z,1.50
2019-03-08T04:00:14.906Z,1.27
2019-03-08T04:05:20.353Z,1.47
2019-03-08T04:10:25.899Z,1.90
2019-03-08T04:15:31.059Z,1.80
2019-03-08T04:20:36.234Z,1.30
2019-03-08T04:25:41.519Z,1.30
2019-03-08T04:30:47.234Z,1.20
2019-03-08T04:35:53.493Z,1.30
2019-03-08T04:40:59.001Z,1.10
2019-03-08T04:46:04.353Z,1.30
2019-03-08T04:51:09.796Z,1.20
2019-03-08T04:56:14.971Z,1.17
2019-03-08T05:01:20.172Z,1.30
2019-03-08T05:06:25.310Z,1.20
2019-03-08T05:11:30.951Z,1.13
2019-03-08T05:16:36.394Z,1.37
2019-03-08T05:21:42.212Z,1.03
2019-03-08T05:26:47.311Z,1.17
2019-03-08T05:31:53.267Z,1.33
2019-03-08T05:36:58.943Z,1.30
2019-03-08T05:42:04.568Z,1.27
2019-03-08T05:47:09.959Z,1.37
2019-03-08T05:52:15.440Z,1.20
2019-03-08T05:57:20.502Z,1.30
2019-03-08T06:02:25.582Z,1.30
2019-03-08T06:07:30.713Z,1.30
2019-03-08T06:12:35.844Z,1.20
2019-03-08T06:17:41.365Z,1.50
2019-03-08T06:22:46.855Z,1.30
2019-03-08T06:27:51.980Z,1.30
2019-03-08T06:32:58.983Z,1.40
2019-03-08T06:38:04.130Z,1.27
2019-03-08T06:43:09.298Z,1.03
2019-03-08T06:48:14.775Z,1.33
2019-03-08T06:53:21.092Z,1.30
2019-03-08T06:58:35.751Z,1.70
2019-03-08T07:03:41.191Z,1.37
2019-03-08T07:08:46.911Z,1.20
2019-03-08T07:13:53.453Z,1.42
2019-03-08T07:18:58.506Z,1.33
2019-03-08T07:24:26.128Z,1.33
2019-03-08T07:29:50.783Z,1.50
2019-03-08T07:35:18.124Z,1.50
2019-03-08T07:40:35.564Z,1.40
2019-03-08T07:45:57.101Z,1.40
2019-03-08T07:51:12.600Z,1.43
2019-03-08T07:56:35.567Z,1.17
2019-03-08T08:01:59.132Z,1.40
2019-03-08T08:07:17.010Z,1.23
2019-03-08T08:12:53.336Z,1.27
2019-03-08T08:18:11.804Z,1.50
2019-03-08T08:23:49.171Z,1.30
2019-03-08T08:29:08.348Z,1.20
2019-03-08T08:34:51.010Z,1.60
2019-03-08T08:40:30.593Z,1.30
2019-03-08T08:45:55.665Z,1.60
2019-03-08T08:51:24.596Z,1.30
2019-03-08T08:56:38.569Z,1.60
2019-03-08T09:02:05.741Z,1.60
2019-03-08T09:07:28.693Z,1.70
2019-03-08T09:12:41.507Z,1.33
2019-03-08T09:18:11.438Z,1.50
2019-03-08T09:23:25.756Z,1.30
2019-03-08T09:28:59.219Z,1.40
2019-03-08T09:34:18.098Z,1.20
2019-03-08T09:39:42.227Z,1.30
2019-03-08T09:45:01.774Z,1.10
2019-03-08T09:50:17.903Z,1.40
2019-03-08T09:55:45.355Z,1.70
2019-03-08T10:01:17.083Z,1.70
2019-03-08T10:06:44.177Z,1.70
2019-03-08T10:12:23.773Z,2.10
2019-03-08T10:17:38.871Z,2.43
2019-03-08T10:23:21.632Z,2.27
2019-03-08T10:28:45.807Z,2.60
2019-03-08T10:34:21.872Z,2.37
2019-03-08T10:39:38.973Z,2.53
2019-03-08T10:45:09.317Z,2.40
2019-03-08T10:50:38.085Z,2.60
2019-03-08T10:56:04.995Z,2.20
2019-03-08T11:01:28.482Z,1.80
2019-03-08T11:07:07.756Z,1.40
2019-03-08T11:12:28.700Z,1.30
2019-03-08T11:17:57.197Z,1.20
2019-03-08T11:23:09.622Z,1.20
2019-03-08T11:28:39.711Z,1.27
2019-03-08T11:33:52.595Z,1.30
2019-03-08T11:39:20.891Z,1.30
2019-03-08T11:44:38.229Z,1.20
2019-03-08T11:50:17.640Z,1.20
2019-03-08T11:55:54.442Z,1.00
2019-03-08T12:01:21.244Z,1.30
2019-03-08T12:06:48.831Z,1.20
2019-03-08T12:12:00.023Z,1.60
2019-03-08T12:17:22.172Z,1.50
2019-03-08T12:22:46.304Z,1.23
2019-03-08T12:28:07.089Z,1.40
2019-03-08T12:33:34.429Z,1.40
2019-03-08T12:38:50.578Z,1.60
2019-03-08T12:44:15.795Z,1.70
2019-03-08T12:49:32.624Z,1.50
2019-03-08T12:54:55.734Z,1.80
2019-03-08T13:00:19.959Z,2.05
2019-03-08T13:05:45.849Z,2.20
2019-03-08T13:10:52.129Z,1.90
2019-03-08T13:15:57.362Z,2.10
2019-03-08T13:21:02.977Z,2.05
2019-03-08T13:26:08.187Z,2.52
2019-03-08T13:31:15.385Z,2.75
2019-03-08T13:36:20.516Z,2.90
2019-03-08T13:41:25.652Z,2.45
2019-03-08T13:46:31.449Z,2.50
2019-03-08T13:51:36.643Z,2.80
2019-03-08T13:56:41.852Z,2.70
2019-03-08T14:01:47.017Z,2.60
2019-03-08T14:06:52.536Z,2.33
2019-03-08T14:11:58.102Z,2.80
2019-03-08T14:17:04.420Z,2.92
2019-03-08T14:22:09.637Z,2.90
2019-03-08T14:27:15.162Z,2.80
2019-03-08T14:32:25.388Z,2.22
2019-03-08T14:37:28.711Z,2.33
2019-03-08T14:42:46.154Z,2.73
2019-03-08T14:47:56.570Z,2.67
2019-03-08T14:53:01.776Z,2.58
2019-03-08T14:58:07.287Z,2.58
2019-03-08T15:03:13.619Z,2.58
2019-03-08T15:08:19.627Z,2.50
2019-03-08T15:13:25.790Z,2.80
2019-03-08T15:18:31.375Z,2.37
2019-03-08T15:23:39.272Z,2.50
2019-03-08T15:28:44.339Z,2.22
2019-03-08T15:33:49.725Z,2.50
2019-03-08T15:38:58.788Z,2.58
2019-03-08T15:44:04.658Z,2.90
2019-03-08T15:49:09.873Z,3.00
2019-03-08T15:54:15.007Z,2.70
2019-03-08T15:59:20.312Z,2.80
2019-03-08T16:04:25.572Z,2.45
2019-03-08T16:09:30.789Z,2.17
2019-03-08T16:14:36.313Z,2.00
2019-03-08T16:19:41.411Z,2.20
2019-03-08T16:24:47.544Z,2.30
2019-03-08T16:29:53.419Z,2.40
2019-03-08T16:34:58.491Z,2.47
2019-03-08T16:40:32.349Z,2.30
2019-03-08T16:46:02.139Z,2.40
2019-03-08T16:51:17.878Z,2.40
2019-03-08T16:56:51.169Z,2.40
2019-03-08T17:02:19.772Z,2.17
2019-03-08T17:07:43.141Z,2.52
2019-03-08T17:13:13.661Z,2.30
2019-03-08T17:18:39.171Z,2.40
2019-03-08T17:24:06.812Z,2.15
2019-03-08T17:29:16.694Z,2.60
2019-03-08T17:34:52.750Z,2.77
2019-03-08T17:40:28.073Z,2.77
2019-03-08T17:45:55.104Z,2.60
2019-03-08T17:51:30.865Z,2.73
2019-03-08T17:56:58.625Z,2.60
2019-03-08T18:02:28.937Z,2.75
2019-03-08T18:07:52.908Z,2.53
2019-03-08T18:13:35.820Z,3.10
2019-03-08T18:18:59.018Z,2.80
2019-03-08T18:24:23.964Z,3.03
2019-03-08T18:29:37.074Z,3.05
2019-03-08T18:34:59.960Z,3.50
2019-03-08T18:40:37.264Z,3.40
2019-03-08T18:46:00.044Z,3.60
2019-03-08T18:51:25.186Z,4.30
2019-03-08T18:56:49.334Z,4.30
2019-03-08T19:02:13.227Z,4.00
2019-03-08T19:07:56.140Z,4.40
2019-03-08T19:13:23.373Z,4.30
2019-03-08T19:18:57.101Z,4.37
2019-03-08T19:24:20.840Z,5.00
2019-03-08T19:29:46.626Z,4.73
2019-03-08T19:35:07.252Z,5.00
2019-03-08T19:40:18.740Z,5.37
2019-03-08T19:45:34.322Z,5.20
2019-03-08T19:51:01.941Z,4.67
2019-03-08T19:56:31.890Z,5.00
2019-03-08T20:01:48.650Z,4.40
2019-03-08T20:07:23.885Z,4.37
2019-03-08T20:12:41.141Z,4.93
2019-03-08T20:17:54.513Z,4.50
2019-03-08T20:23:30.273Z,5.00
2019-03-08T20:28:56.736Z,4.40
2019-03-08T20:34:19.148Z,4.43
2019-03-08T20:39:36.415Z,4.40
2019-03-08T20:45:03.581Z,3.57
2019-03-08T20:50:11.233Z,3.77
2019-03-08T20:55:16.415Z,4.27
2019-03-08T21:00:21.718Z,3.70
2019-03-08T21:05:27.154Z,3.63
2019-03-08T21:10:32.588Z,4.23
2019-03-08T21:15:38.024Z,4.10
2019-03-08T21:20:43.490Z,3.83
2019-03-08T21:25:48.728Z,4.00
2019-03-08T21:30:53.808Z,4.03
2019-03-08T21:36:00.110Z,4.83
2019-03-08T21:41:06.079Z,4.10
2019-03-08T21:46:11.279Z,4.20
2019-03-08T21:51:16.404Z,4.33
2019-03-08T21:56:21.810Z,4.60
2019-03-08T22:01:27.442Z,5.00
2019-03-08T22:06:32.555Z,4.67
2019-03-08T22:11:42.518Z,4.87
2019-03-08T22:16:48.511Z,4.80
2019-03-08T22:21:53.824Z,5.23
2019-03-08T22:26:59.254Z,5.00
2019-03-08T22:32:05.164Z,4.60
2019-03-08T22:37:10.294Z,4.40
2019-03-08T22:42:15.422Z,4.23
2019-03-08T22:47:20.685Z,3.65
2019-03-08T22:52:25.741Z,3.60
2019-03-08T22:57:31.567Z,3.30
2019-03-08T23:02:38.427Z,3.20
2019-03-08T23:07:43.698Z,2.93
2019-03-08T23:12:50.212Z,2.90
2019-03-08T23:17:56.348Z,3.00
2019-03-08T23:23:01.604Z,3.30
2019-03-08T23:28:21.426Z,3.80
2019-03-08T23:33:26.481Z,3.37
2019-03-08T23:38:31.617Z,3.83
2019-03-08T23:43:36.741Z,4.13
2019-03-08T23:48:41.861Z,3.97
2019-03-08T23:53:47.342Z,3.85
2019-03-08T23:58:52.558Z,3.90
